Time;durP1;ratioP1;P1;durP2;ratioP2;P2;SDS_P1;SDS_P2;PMS_P1;PMS_P2;Temp;Humidity;BMP_temperature;BMP_pressure;BME280_temperature;BME280_humidity;BME280_pressure;Samples;Min_cycle;Max_cycle;Signal;HPM_P1;HPM_P2
2020/12/02 00:03:41;;;;;;;;;64.33;48.00;;;;;;;;12708649;27;8824;-50
2020/12/02 00:09:42;;;;;;;;;63.00;49.00;;;;;;;;12733726;27;8835;-48
2020/12/02 00:15:44;;;;;;;;;57.00;48.00;;;;;;;;12734271;27;8827;-48
2020/12/02 00:22:13;;;;;;;;;63.67;50.67;;;;;;;;12733310;27;8954;-49
2020/12/02 00:28:14;;;;;;;;;47.33;45.00;;;;;;;;12733547;27;8827;-53
2020/12/02 00:34:16;;;;;;;;;63.33;51.67;;;;;;;;12733939;27;8831;-49
2020/12/02 00:40:18;;;;;;;;;51.00;41.00;;;;;;;;12731563;27;8847;-47
2020/12/02 00:46:19;;;;;;;;;69.00;49.00;;;;;;;;12732933;27;8823;-46
2020/12/02 00:52:23;;;;;;;;;69.00;50.67;;;;;;;;12713571;27;8863;-48
2020/12/02 00:58:47;;;;;;;;;58.67;48.33;;;;;;;;12712843;27;8886;-46
2020/12/02 01:04:50;;;;;;;;;60.00;47.33;;;;;;;;12725247;27;8838;-47
2020/12/02 01:11:10;;;;;;;;;56.33;45.00;;;;;;;;12730453;27;9591;-48
2020/12/02 01:17:12;;;;;;;;;51.67;42.67;;;;;;;;12731179;27;8966;-48
2020/12/02 01:23:15;;;;;;;;;51.00;44.00;;;;;;;;12729492;27;8870;-47
2020/12/02 01:29:22;;;;;;;;;42.67;37.00;;;;;;;;12731576;27;8835;-47
2020/12/02 01:35:27;;;;;;;;;46.67;41.00;;;;;;;;12728223;27;8839;-50
2020/12/02 01:41:28;;;;;;;;;53.00;40.67;;;;;;;;12729911;27;8842;-49
2020/12/02 01:47:52;;;;;;;;;69.67;54.67;;;;;;;;12730052;27;8882;-49
2020/12/02 01:54:17;;;;;;;;;67.00;51.67;;;;;;;;12723498;27;8847;-48
2020/12/02 02:00:27;;;;;;;;;67.33;49.67;;;;;;;;12730552;27;8855;-48
2020/12/02 02:06:53;;;;;;;;;58.67;49.33;;;;;;;;12728470;27;9302;-47
2020/12/02 02:13:15;;;;;;;;;66.33;55.00;;;;;;;;12705828;27;8843;-48
2020/12/02 02:19:23;;;;;;;;;62.00;50.67;;;;;;;;12729530;27;8847;-52
2020/12/02 02:25:24;;;;;;;;;59.33;48.67;;;;;;;;12729707;27;9651;-48
2020/12/02 02:31:29;;;;;;;;;58.00;46.00;;;;;;;;12720646;27;8835;-49
2020/12/02 02:37:32;;;;;;;;;45.67;40.33;;;;;;;;12729701;27;8839;-48
2020/12/02 02:43:33;;;;;;;;;51.33;45.00;;;;;;;;12730527;27;8891;-47
2020/12/02 02:49:35;;;;;;;;;50.67;40.33;;;;;;;;12728926;27;8874;-48
2020/12/02 02:55:36;;;;;;;;;52.33;46.67;;;;;;;;12738714;27;8880;-50
2020/12/02 03:01:45;;;;;;;;;66.67;49.00;;;;;;;;12736560;27;8843;-52
2020/12/02 03:07:54;;;;;;;;;54.67;45.33;;;;;;;;12737039;27;8894;-50
2020/12/02 03:13:56;;;;;;;;;64.33;51.33;;;;;;;;12737118;27;8827;-53
2020/12/02 03:20:20;;;;;;;;;63.67;49.00;;;;;;;;12736165;27;8839;-49
2020/12/02 03:26:22;;;;;;;;;51.33;44.33;;;;;;;;12736827;27;8831;-50
2020/12/02 03:32:24;;;;;;;;;57.00;46.33;;;;;;;;12735084;27;8831;-52
2020/12/02 03:38:25;;;;;;;;;63.33;49.67;;;;;;;;12737062;27;8851;-48
2020/12/02 03:44:26;;;;;;;;;61.00;48.00;;;;;;;;12735233;27;8843;-50
2020/12/02 03:50:28;;;;;;;;;64.67;52.67;;;;;;;;12734902;27;8842;-51
2020/12/02 03:56:30;;;;;;;;;68.33;52.33;;;;;;;;12735145;27;9663;-52
2020/12/02 04:02:31;;;;;;;;;63.67;51.00;;;;;;;;12733477;27;9560;-51
2020/12/02 04:08:33;;;;;;;;;70.00;52.67;;;;;;;;12735299;27;8839;-47
2020/12/02 04:14:34;;;;;;;;;66.33;49.00;;;;;;;;12725128;27;8854;-48
2020/12/02 04:20:35;;;;;;;;;72.67;52.67;;;;;;;;12732575;27;8925;-50
2020/12/02 04:26:37;;;;;;;;;66.67;53.33;;;;;;;;12733814;27;8863;-49
2020/12/02 04:32:38;;;;;;;;;65.00;49.67;;;;;;;;12732851;27;8917;-51
2020/12/02 04:38:40;;;;;;;;;65.00;48.67;;;;;;;;12733002;27;8831;-52
2020/12/02 04:44:41;;;;;;;;;58.00;44.33;;;;;;;;12731978;27;8815;-51
2020/12/02 04:50:43;;;;;;;;;59.00;47.33;;;;;;;;12731067;27;8966;-48
2020/12/02 04:56:49;;;;;;;;;57.00;48.67;;;;;;;;12732933;27;8850;-49
2020/12/02 05:02:50;;;;;;;;;61.00;46.67;;;;;;;;12708478;27;9025;-54
2020/12/02 05:09:10;;;;;;;;;45.33;41.33;;;;;;;;12703795;27;8838;-48
2020/12/02 05:15:25;;;;;;;;;60.67;45.33;;;;;;;;12721542;27;8835;-47
2020/12/02 05:21:30;;;;;;;;;50.00;39.33;;;;;;;;12724783;27;8835;-50
2020/12/02 05:27:35;;;;;;;;;56.00;45.00;;;;;;;;12730457;27;8835;-49
2020/12/02 05:33:38;;;;;;;;;56.33;42.33;;;;;;;;12722343;27;8846;-48
2020/12/02 05:39:59;;;;;;;;;57.67;48.67;;;;;;;;12724850;27;8839;-51
2020/12/02 05:46:01;;;;;;;;;50.67;45.00;;;;;;;;12729395;27;8920;-50
2020/12/02 05:52:02;;;;;;;;;63.67;48.00;;;;;;;;12730228;27;8824;-49
2020/12/02 05:58:12;;;;;;;;;53.00;43.33;;;;;;;;12730380;27;8900;-52
2020/12/02 06:04:27;;;;;;;;;39.00;35.00;;;;;;;;12728734;27;8915;-54
2020/12/02 06:10:42;;;;;;;;;45.67;40.67;;;;;;;;12729886;27;8934;-48
2020/12/02 06:16:46;;;;;;;;;60.67;48.00;;;;;;;;12717506;27;9369;-55
2020/12/02 06:22:48;;;;;;;;;56.33;48.33;;;;;;;;12740222;27;8851;-49
2020/12/02 06:28:49;;;;;;;;;58.33;46.00;;;;;;;;12737926;27;8919;-49
2020/12/02 06:35:17;;;;;;;;;42.00;36.33;;;;;;;;12737949;27;8835;-55
2020/12/02 06:41:29;;;;;;;;;66.00;49.00;;;;;;;;12737675;27;8829;-50
2020/12/02 06:47:33;;;;;;;;;59.00;48.67;;;;;;;;12718401;27;8847;-49
2020/12/02 06:53:34;;;;;;;;;70.67;49.67;;;;;;;;12703280;27;8889;-51
2020/12/02 07:00:02;;;;;;;;;54.00;49.33;;;;;;;;12735723;27;9772;-52
2020/12/02 07:06:28;;;;;;;;;60.00;49.00;;;;;;;;12737090;27;8839;-53
2020/12/02 07:12:31;;;;;;;;;62.33;49.67;;;;;;;;12728620;27;8929;-52
2020/12/02 07:18:32;;;;;;;;;62.00;48.00;;;;;;;;12736361;27;8933;-50
2020/12/02 07:24:45;;;;;;;;;62.33;51.67;;;;;;;;12735393;27;8835;-50
2020/12/02 07:30:47;;;;;;;;;67.00;52.00;;;;;;;;12727224;27;8924;-51
2020/12/02 07:36:56;;;;;;;;;66.33;52.00;;;;;;;;12736863;27;8850;-49
2020/12/02 07:43:02;;;;;;;;;54.00;43.00;;;;;;;;12701510;27;9697;-52
2020/12/02 07:49:05;;;;;;;;;59.33;51.00;;;;;;;;12716980;27;8952;-51
2020/12/02 07:55:13;;;;;;;;;66.00;50.33;;;;;;;;12711768;27;9236;-51
2020/12/02 08:01:21;;;;;;;;;65.67;51.33;;;;;;;;12713605;27;8991;-50
2020/12/02 08:07:40;;;;;;;;;60.67;48.67;;;;;;;;12721038;27;8872;-54
2020/12/02 08:13:53;;;;;;;;;73.00;54.67;;;;;;;;12720267;27;8824;-54
2020/12/02 08:19:59;;;;;;;;;73.67;58.33;;;;;;;;12714464;27;8944;-48
2020/12/02 08:26:12;;;;;;;;;71.33;57.00;;;;;;;;12697840;27;8942;-53
2020/12/02 08:32:29;;;;;;;;;62.67;49.00;;;;;;;;12716118;27;8926;-51
2020/12/02 08:38:33;;;;;;;;;67.33;52.33;;;;;;;;12725535;27;8889;-50
2020/12/02 08:44:35;;;;;;;;;65.67;54.00;;;;;;;;12708877;27;8877;-52
2020/12/02 08:50:36;;;;;;;;;68.00;56.33;;;;;;;;12714295;27;8862;-53
2020/12/02 08:56:38;;;;;;;;;62.00;51.25;;;;;;;;12703406;27;8938;-54
2020/12/02 09:02:39;;;;;;;;;69.67;53.00;;;;;;;;12702354;27;8844;-48
2020/12/02 09:08:41;;;;;;;;;67.67;52.33;;;;;;;;12714483;27;8835;-50
2020/12/02 09:14:42;;;;;;;;;68.00;53.25;;;;;;;;12715818;27;8955;-48
2020/12/02 09:20:44;;;;;;;;;70.00;54.00;;;;;;;;12694490;27;8858;-50
2020/12/02 09:26:46;;;;;;;;;65.75;51.75;;;;;;;;12709490;27;8835;-53
2020/12/02 09:32:52;;;;;;;;;59.00;50.25;;;;;;;;12722294;27;8823;-49
2020/12/02 09:38:54;;;;;;;;;71.00;56.00;;;;;;;;12688681;27;8829;-51
2020/12/02 09:45:06;;;;;;;;;73.50;55.50;;;;;;;;12726206;27;8837;-49
2020/12/02 09:51:20;;;;;;;;;76.50;60.25;;;;;;;;12714092;27;8884;-51
2020/12/02 09:57:24;;;;;;;;;74.25;57.50;;;;;;;;12738872;27;10172;-48
2020/12/02 10:03:53;;;;;;;;;71.75;58.75;;;;;;;;12732573;27;8940;-48
2020/12/02 10:10:22;;;;;;;;;77.50;62.25;;;;;;;;12726965;27;8982;-48
2020/12/02 10:16:37;;;;;;;;;69.25;52.00;;;;;;;;12724847;27;8938;-52
2020/12/02 10:22:50;;;;;;;;;85.00;65.00;;;;;;;;12710921;27;8840;-52
2020/12/02 10:28:58;;;;;;;;;80.25;62.00;;;;;;;;12671900;28;8848;-56
2020/12/02 10:35:00;;;;;;;;;79.50;62.50;;;;;;;;12677694;28;8959;-57
2020/12/02 10:41:39;;;;;;;;;73.25;57.25;;;;;;;;12681511;28;8841;-52
2020/12/02 10:48:06;;;;;;;;;78.50;59.50;;;;;;;;12662945;28;8825;-53
2020/12/02 10:54:18;;;;;;;;;79.33;59.00;;;;;;;;12651570;28;8843;-53
2020/12/02 11:00:24;;;;;;;;;73.25;59.00;;;;;;;;12676631;28;8937;-50
2020/12/02 11:06:41;;;;;;;;;78.33;63.00;;;;;;;;12656299;28;8877;-50
2020/12/02 11:12:56;;;;;;;;;77.00;61.00;;;;;;;;12657559;28;8997;-52
2020/12/02 11:19:32;;;;;;;;;79.33;66.00;;;;;;;;12681602;28;8832;-52
2020/12/02 11:26:00;;;;;;;;;85.00;65.00;;;;;;;;12669296;28;8968;-50
2020/12/02 11:32:45;;;;;;;;;79.33;61.67;;;;;;;;12652155;28;8848;-49
2020/12/02 11:39:15;;;;;;;;;81.33;65.00;;;;;;;;12665562;28;9646;-52
2020/12/02 11:45:25;;;;;;;;;80.75;63.75;;;;;;;;12660234;28;8825;-55
2020/12/02 11:51:46;;;;;;;;;77.75;62.00;;;;;;;;12679422;28;8801;-53
2020/12/02 11:57:53;;;;;;;;;88.00;63.25;;;;;;;;12679865;28;8842;-53
2020/12/02 12:04:06;;;;;;;;;78.75;63.75;;;;;;;;12664398;28;8837;-52
2020/12/02 12:10:23;;;;;;;;;74.00;61.00;;;;;;;;12679548;28;8953;-52
2020/12/02 12:16:46;;;;;;;;;78.50;62.75;;;;;;;;12672924;28;8841;-50
2020/12/02 12:23:25;;;;;;;;;76.00;59.00;;;;;;;;12675228;27;8830;-54
2020/12/02 12:29:27;;;;;;;;;79.33;62.00;;;;;;;;12719770;27;8867;-53
2020/12/02 12:35:36;;;;;;;;;73.67;59.67;;;;;;;;12713170;27;8831;-55
2020/12/02 12:41:50;;;;;;;;;75.00;60.00;;;;;;;;12687533;27;8806;-53
2020/12/02 12:47:57;;;;;;;;;74.33;58.00;;;;;;;;12703099;27;8847;-52
2020/12/02 12:54:06;;;;;;;;;75.67;60.67;;;;;;;;12714865;27;8918;-53
2020/12/02 13:00:10;;;;;;;;;67.00;52.33;;;;;;;;12734098;27;8859;-51
2020/12/02 13:06:42;;;;;;;;;76.25;60.25;;;;;;;;12687511;27;8848;-54
2020/12/02 13:13:02;;;;;;;;;83.00;61.50;;;;;;;;12715944;27;8829;-51
2020/12/02 13:19:23;;;;;;;;;78.00;61.67;;;;;;;;12716461;27;8839;-52
2020/12/02 13:25:29;;;;;;;;;78.25;62.25;;;;;;;;12731600;27;9687;-54
2020/12/02 13:31:35;;;;;;;;;71.25;55.50;;;;;;;;12711227;27;8819;-51
2020/12/02 13:37:39;;;;;;;;;76.67;62.00;;;;;;;;12709359;27;8823;-52
2020/12/02 13:43:41;;;;;;;;;75.67;58.67;;;;;;;;12707895;27;9632;-53
2020/12/02 13:49:42;;;;;;;;;66.67;52.00;;;;;;;;12705735;28;10219;-51
2020/12/02 13:56:05;;;;;;;;;76.67;58.33;;;;;;;;12681288;27;8835;-50
2020/12/02 14:02:18;;;;;;;;;66.50;55.25;;;;;;;;12714764;27;8860;-53
2020/12/02 14:08:19;;;;;;;;;72.25;57.25;;;;;;;;12694198;27;8843;-51
2020/12/02 14:14:25;;;;;;;;;79.00;64.00;;;;;;;;12702279;27;8966;-49
2020/12/02 14:20:26;;;;;;;;;79.67;62.00;;;;;;;;12720684;27;8831;-50
2020/12/02 14:26:28;;;;;;;;;71.33;58.33;;;;;;;;12708878;28;8861;-50
2020/12/02 14:32:30;;;;;;;;;81.00;64.33;;;;;;;;12706952;27;8891;-51
2020/12/02 14:38:32;;;;;;;;;77.67;62.00;;;;;;;;12705695;27;8823;-53
2020/12/02 14:44:37;;;;;;;;;83.00;63.33;;;;;;;;12722555;27;8835;-52
2020/12/02 14:50:40;;;;;;;;;75.00;60.33;;;;;;;;12700118;27;8989;-54
2020/12/02 14:57:06;;;;;;;;;80.00;63.67;;;;;;;;12738171;27;8865;-48
2020/12/02 15:03:08;;;;;;;;;80.67;63.67;;;;;;;;12739307;27;8816;-50
2020/12/02 15:09:52;;;;;;;;;77.33;59.00;;;;;;;;12737549;27;8858;-51
2020/12/02 15:15:54;;;;;;;;;73.75;59.00;;;;;;;;12727145;27;8820;-50
2020/12/02 15:22:01;;;;;;;;;75.25;61.00;;;;;;;;12720535;27;8827;-51
2020/12/02 15:28:04;;;;;;;;;74.25;61.00;;;;;;;;12708386;27;8882;-54
2020/12/02 15:34:05;;;;;;;;;75.67;60.33;;;;;;;;12724473;27;8815;-53
2020/12/02 15:40:48;;;;;;;;;77.67;60.67;;;;;;;;12730589;27;8862;-55
2020/12/02 15:47:43;;;;;;;;;73.00;53.67;;;;;;;;12725249;27;8831;-51
2020/12/02 15:53:51;;;;;;;;;70.33;56.67;;;;;;;;12689822;27;8832;-51
2020/12/02 16:00:08;;;;;;;;;67.67;56.00;;;;;;;;12735639;27;8847;-51
2020/12/02 16:06:10;;;;;;;;;71.00;58.67;;;;;;;;12733502;27;8862;-50
2020/12/02 16:12:14;;;;;;;;;77.67;60.33;;;;;;;;12731483;27;8821;-55
2020/12/02 16:18:15;;;;;;;;;74.67;61.00;;;;;;;;12731627;27;8850;-51
2020/12/02 16:24:19;;;;;;;;;79.00;63.67;;;;;;;;12733637;27;8827;-53
2020/12/02 16:30:21;;;;;;;;;74.33;56.00;;;;;;;;12733884;27;9600;-52
2020/12/02 16:36:25;;;;;;;;;74.00;57.00;;;;;;;;12732556;27;8843;-52
2020/12/02 16:42:35;;;;;;;;;77.00;58.00;;;;;;;;12733927;27;8832;-52
2020/12/02 16:49:01;;;;;;;;;57.33;47.33;;;;;;;;12724324;27;8827;-51
2020/12/02 16:55:22;;;;;;;;;78.00;62.00;;;;;;;;12734325;27;8929;-51
2020/12/02 17:01:26;;;;;;;;;81.33;61.00;;;;;;;;12731605;27;9620;-51
2020/12/02 17:07:28;;;;;;;;;73.33;58.33;;;;;;;;12731278;27;8851;-54
2020/12/02 17:13:43;;;;;;;;;69.00;59.33;;;;;;;;12723544;27;8854;-50
2020/12/02 17:20:02;;;;;;;;;90.00;69.00;;;;;;;;12714424;27;8827;-49
2020/12/02 17:26:22;;;;;;;;;73.00;56.33;;;;;;;;12731325;27;8893;-51
2020/12/02 17:32:38;;;;;;;;;77.67;58.67;;;;;;;;12730573;27;8830;-54
2020/12/02 17:38:40;;;;;;;;;88.33;60.67;;;;;;;;12707029;27;8899;-52
2020/12/02 17:44:57;;;;;;;;;87.67;67.67;;;;;;;;12730281;27;8931;-50
2020/12/02 17:51:01;;;;;;;;;83.33;65.00;;;;;;;;12731362;27;8896;-54
2020/12/02 17:57:10;;;;;;;;;86.00;66.33;;;;;;;;12730228;27;8811;-54
2020/12/02 18:03:23;;;;;;;;;74.00;60.67;;;;;;;;12716225;27;8922;-50
2020/12/02 18:10:08;;;;;;;;;83.67;66.00;;;;;;;;12730881;27;8977;-52
2020/12/02 18:16:14;;;;;;;;;82.67;62.67;;;;;;;;12730967;27;9316;-49
2020/12/02 18:22:37;;;;;;;;;81.33;65.00;;;;;;;;12740600;27;8835;-51
2020/12/02 18:28:39;;;;;;;;;79.00;59.67;;;;;;;;12730745;27;8816;-54
2020/12/02 18:35:18;;;;;;;;;76.67;61.00;;;;;;;;12740832;27;8854;-53
2020/12/02 18:41:38;;;;;;;;;75.00;58.00;;;;;;;;12738284;27;8874;-50
2020/12/02 18:47:40;;;;;;;;;70.50;57.00;;;;;;;;12732217;27;8838;-48
2020/12/02 18:53:41;;;;;;;;;73.00;58.00;;;;;;;;12737207;27;8831;-50
2020/12/02 18:59:43;;;;;;;;;64.00;52.33;;;;;;;;12737847;27;8827;-54
2020/12/02 19:05:44;;;;;;;;;70.33;56.00;;;;;;;;12737779;27;8834;-49
2020/12/02 19:12:07;;;;;;;;;71.00;57.67;;;;;;;;12737222;27;9608;-53
2020/12/02 19:18:42;;;;;;;;;56.00;47.67;;;;;;;;12737797;27;8816;-52
2020/12/02 19:24:58;;;;;;;;;77.67;61.00;;;;;;;;12727194;27;8916;-54
2020/12/02 19:31:12;;;;;;;;;77.33;61.33;;;;;;;;12737674;27;8823;-51
2020/12/02 19:37:50;;;;;;;;;71.00;57.00;;;;;;;;12735840;27;8887;-53
2020/12/02 19:44:10;;;;;;;;;75.00;61.00;;;;;;;;12730559;27;8846;-52
2020/12/02 19:50:14;;;;;;;;;60.33;51.33;;;;;;;;12734486;27;8850;-51
2020/12/02 19:56:21;;;;;;;;;70.33;53.33;;;;;;;;12735989;27;8853;-49
2020/12/02 20:02:32;;;;;;;;;61.67;52.00;;;;;;;;12734640;27;9599;-49
2020/12/02 20:08:55;;;;;;;;;57.00;48.00;;;;;;;;12733967;27;8834;-52
2020/12/02 20:15:09;;;;;;;;;70.67;58.33;;;;;;;;12728251;27;8827;-50
2020/12/02 20:21:22;;;;;;;;;51.33;44.33;;;;;;;;12733232;27;8831;-50
2020/12/02 20:27:30;;;;;;;;;64.67;52.67;;;;;;;;12733858;27;8871;-55
2020/12/02 20:33:37;;;;;;;;;72.00;58.00;;;;;;;;12732751;27;8820;-55
2020/12/02 20:39:45;;;;;;;;;65.00;51.33;;;;;;;;12726103;27;9575;-51
2020/12/02 20:45:51;;;;;;;;;72.67;57.33;;;;;;;;12732708;27;9468;-52
2020/12/02 20:52:00;;;;;;;;;74.33;55.00;;;;;;;;12732413;27;8992;-49
2020/12/02 20:58:30;;;;;;;;;57.33;40.67;;;;;;;;12733092;27;8835;-51
2020/12/02 21:04:32;;;;;;;;;66.67;50.00;;;;;;;;12694195;27;8831;-52
2020/12/02 21:10:33;;;;;;;;;66.33;51.33;;;;;;;;12732310;27;8847;-50
2020/12/02 21:16:43;;;;;;;;;71.67;53.33;;;;;;;;12731073;27;8881;-52
2020/12/02 21:22:55;;;;;;;;;70.67;57.00;;;;;;;;12723877;27;8839;-51
2020/12/02 21:29:11;;;;;;;;;62.67;51.67;;;;;;;;12730675;27;9592;-48
2020/12/02 21:35:19;;;;;;;;;63.33;50.33;;;;;;;;12731706;27;8811;-48
2020/12/02 21:41:30;;;;;;;;;64.33;53.33;;;;;;;;12729995;27;8827;-48
2020/12/02 21:47:47;;;;;;;;;56.33;49.00;;;;;;;;12729485;27;8827;-49
2020/12/02 21:54:01;;;;;;;;;61.00;53.33;;;;;;;;12724043;27;8835;-52
2020/12/02 22:00:25;;;;;;;;;64.67;52.67;;;;;;;;12716257;27;8942;-51
2020/12/02 22:06:36;;;;;;;;;67.00;55.33;;;;;;;;12731331;27;8846;-51
2020/12/02 22:12:49;;;;;;;;;58.00;46.67;;;;;;;;12721031;27;8839;-51
2020/12/02 22:19:04;;;;;;;;;54.67;45.33;;;;;;;;12730643;27;8853;-50
2020/12/02 22:25:22;;;;;;;;;66.00;51.67;;;;;;;;12728754;27;8819;-51
2020/12/02 22:32:13;;;;;;;;;54.00;44.25;;;;;;;;12729866;27;8838;-50
2020/12/02 22:38:40;;;;;;;;;62.25;49.75;;;;;;;;12716593;27;8815;-49
2020/12/02 22:45:04;;;;;;;;;57.00;48.50;;;;;;;;12722610;27;8831;-50
2020/12/02 22:51:10;;;;;;;;;59.67;51.00;;;;;;;;12728132;27;8975;-49
2020/12/02 22:57:26;;;;;;;;;56.50;45.50;;;;;;;;12730299;27;8831;-48
2020/12/02 23:03:44;;;;;;;;;58.25;48.00;;;;;;;;12735242;27;8957;-46
2020/12/02 23:09:49;;;;;;;;;60.75;49.75;;;;;;;;12713792;27;8827;-46
2020/12/02 23:16:07;;;;;;;;;54.00;47.50;;;;;;;;12737637;27;8839;-47
2020/12/02 23:22:09;;;;;;;;;61.75;47.00;;;;;;;;12736961;27;8843;-47
2020/12/02 23:28:35;;;;;;;;;61.00;49.50;;;;;;;;12737610;27;8828;-47
2020/12/02 23:34:41;;;;;;;;;65.75;51.00;;;;;;;;12735584;27;9609;-47
2020/12/02 23:40:48;;;;;;;;;62.00;48.25;;;;;;;;12713973;27;8827;-49
2020/12/02 23:47:08;;;;;;;;;42.50;39.75;;;;;;;;12734495;27;8831;-51
2020/12/02 23:53:13;;;;;;;;;48.75;36.25;;;;;;;;12735842;27;8815;-48
2020/12/02 23:59:15;;;;;;;;;32.25;31.50;;;;;;;;12735029;27;8850;-49
